KPTS/PTS METAR and TAF weather

Enter ICAO airport designator
Station Type Date Time Source
KPTS METAR 2021/05/15 01:35 UTC NOAA

KPTS 150135Z AUTO 00000KT 10SM -RA SCT070 BKN100 BKN120 16/12 A3012 RMK AO2 T01630124


Station Type Date Time Source
KPTS Decoded METAR 2021/05/15 01:35 UTC NOAA

Station name not available
May 14, 2021 - 09:35 PM EDT / 2021.05.15 0135 UTC
Wind: Calm:0
Visibility: 10 mile(s):0
Sky conditions: mostly cloudy
Weather: light rain
Temperature: 61.3 F (16.3 C)
Dew Point: 54.3 F (12.4 C)
Relative Humidity: 77%
Pressure (altimeter): 30.12 in. Hg (1019 hPa)
ob: KPTS 150135Z AUTO 00000KT 10SM -RA SCT070 BKN100 BKN120 16/12 A3012 RMK AO2 T01630124
cycle: 1

Station Type Date Time Source
KPTS TAF UTC NOAA

Error!

Example: see airport list